Time;durP1;ratioP1;P1;durP2;ratioP2;P2;SDS_P1;SDS_P2;PMS_P1;PMS_P2;Temp;Humidity;BMP_temperature;BMP_pressure;BME280_temperature;BME280_humidity;BME280_pressure;Samples;Min_cycle;Max_cycle;Signal;HPM_P1;HPM_P2
2021/09/25 00:01:41;;;;;;;10.57;6.70;;;9.80;99.90;;;;;;4123257;28;20081;-65
2021/09/25 00:03:42;;;;;;;9.83;5.83;;;9.70;99.90;;;;;;4124742;28;20038;-62
2021/09/25 00:05:43;;;;;;;11.50;5.70;;;9.70;99.90;;;;;;4123264;28;20104;-61
2021/09/25 00:07:45;;;;;;;11.50;6.20;;;9.60;99.90;;;;;;4125060;28;20038;-67
2021/09/25 00:09:46;;;;;;;13.40;7.10;;;9.60;99.90;;;;;;4123782;28;20019;-64
2021/09/25 00:11:47;;;;;;;13.67;5.83;;;9.60;99.90;;;;;;4122950;28;20101;-62
2021/09/25 00:13:48;;;;;;;9.23;6.00;;;9.50;99.90;;;;;;4124381;28;20093;-63
2021/09/25 00:15:49;;;;;;;9.10;5.33;;;9.60;99.90;;;;;;4123640;28;20522;-66
2021/09/25 00:17:50;;;;;;;10.30;6.80;;;9.50;99.90;;;;;;4123875;28;20046;-63
2021/09/25 00:19:51;;;;;;;10.63;6.20;;;9.50;99.90;;;;;;4123056;28;20088;-62
2021/09/25 00:21:53;;;;;;;13.07;6.07;;;9.50;99.90;;;;;;4124656;28;20041;-69
2021/09/25 00:23:54;;;;;;;11.37;6.10;;;9.50;99.90;;;;;;4123590;28;20076;-63
2021/09/25 00:25:55;;;;;;;13.37;5.53;;;9.50;99.90;;;;;;4124895;28;20034;-63
2021/09/25 00:27:57;;;;;;;9.83;5.83;;;9.50;99.90;;;;;;4123240;28;20859;-65
2021/09/25 00:29:58;;;;;;;10.33;6.03;;;9.40;99.90;;;;;;4124669;28;20098;-64
2021/09/25 00:32:00;;;;;;;10.37;5.80;;;9.40;99.90;;;;;;4123485;28;20038;-62
2021/09/25 00:34:01;;;;;;;12.57;5.97;;;9.40;99.90;;;;;;4124087;28;20038;-63
2021/09/25 00:36:03;;;;;;;11.30;6.13;;;9.40;99.90;;;;;;4123270;28;20495;-70
2021/09/25 00:38:04;;;;;;;11.53;5.77;;;9.30;99.90;;;;;;4124694;28;20059;-70
2021/09/25 00:40:07;;;;;;;10.87;5.60;;;9.30;99.90;;;;;;4123057;28;20101;-63
2021/09/25 00:42:08;;;;;;;8.97;5.80;;;9.30;99.90;;;;;;4123437;28;20113;-63
2021/09/25 00:44:09;;;;;;;9.10;6.07;;;9.30;99.90;;;;;;4124220;28;20042;-63
2021/09/25 00:46:13;;;;;;;10.33;6.80;;;9.30;99.90;;;;;;4123933;28;20038;-65
2021/09/25 00:48:14;;;;;;;11.17;6.90;;;9.20;99.90;;;;;;4126510;28;20089;-64
2021/09/25 00:50:16;;;;;;;9.70;6.00;;;9.20;99.90;;;;;;4126166;28;20526;-65
2021/09/25 00:52:17;;;;;;;10.17;5.77;;;9.20;99.90;;;;;;4127380;28;20372;-66
2021/09/25 00:54:19;;;;;;;11.20;5.90;;;9.10;99.90;;;;;;4125917;28;20038;-63
2021/09/25 00:56:22;;;;;;;12.37;6.23;;;9.10;99.90;;;;;;4127082;28;20034;-62
2021/09/25 00:58:23;;;;;;;8.67;5.67;;;9.10;99.90;;;;;;4126099;28;20097;-62
2021/09/25 01:00:25;;;;;;;8.30;5.50;;;9.10;99.90;;;;;;4127507;28;20790;-65
2021/09/25 01:02:26;;;;;;;9.60;5.27;;;9.10;99.90;;;;;;4125670;28;20469;-69
2021/09/25 01:04:28;;;;;;;9.50;6.00;;;9.10;99.90;;;;;;4127356;28;20105;-69
2021/09/25 01:06:29;;;;;;;9.60;5.50;;;9.10;99.90;;;;;;4126230;28;20052;-68
2021/09/25 01:08:30;;;;;;;9.40;5.20;;;9.10;99.90;;;;;;4125706;28;20050;-66
2021/09/25 01:10:31;;;;;;;8.70;5.70;;;9.10;99.90;;;;;;4126461;28;20030;-61
2021/09/25 01:12:34;;;;;;;9.93;4.93;;;9.10;99.90;;;;;;4127273;28;20104;-67
2021/09/25 01:14:35;;;;;;;8.17;5.83;;;9.10;99.90;;;;;;4126325;28;20038;-70
2021/09/25 01:16:36;;;;;;;11.23;5.70;;;9.00;99.90;;;;;;4128904;28;20112;-63
2021/09/25 01:18:37;;;;;;;10.57;6.27;;;9.00;99.90;;;;;;4128469;28;20422;-60
2021/09/25 01:20:39;;;;;;;8.67;5.50;;;9.00;99.90;;;;;;4126099;28;20031;-71
2021/09/25 01:22:40;;;;;;;11.10;5.93;;;8.90;99.90;;;;;;4126595;28;20112;-67
2021/09/25 01:24:42;;;;;;;12.83;6.43;;;8.80;99.90;;;;;;4126007;28;20529;-66
2021/09/25 01:26:43;;;;;;;11.03;6.43;;;8.80;99.90;;;;;;4127350;28;20030;-66
2021/09/25 01:28:44;;;;;;;11.63;5.77;;;8.70;99.90;;;;;;4125270;28;20911;-63
2021/09/25 01:30:45;;;;;;;8.03;4.77;;;8.70;99.90;;;;;;4126878;28;20050;-62
2021/09/25 01:32:49;;;;;;;8.33;6.03;;;8.60;99.90;;;;;;4125633;28;20097;-68
2021/09/25 01:34:50;;;;;;;10.73;5.53;;;8.60;99.90;;;;;;4127112;28;20042;-68
2021/09/25 01:36:51;;;;;;;10.90;5.13;;;8.60;99.90;;;;;;4125429;28;20471;-65
2021/09/25 01:38:52;;;;;;;9.13;4.80;;;8.70;99.90;;;;;;4126751;28;20133;-62
2021/09/25 01:40:54;;;;;;;8.67;4.87;;;8.60;99.90;;;;;;4125681;28;20089;-62
2021/09/25 01:42:55;;;;;;;9.00;5.03;;;8.70;99.90;;;;;;4126971;28;20612;-63
2021/09/25 01:44:56;;;;;;;11.87;5.13;;;8.70;99.90;;;;;;4125621;28;20430;-63
2021/09/25 01:46:58;;;;;;;7.53;4.50;;;8.70;99.90;;;;;;4126099;28;20038;-63
2021/09/25 01:49:00;;;;;;;8.17;3.87;;;8.70;99.90;;;;;;4123824;28;20027;-65
2021/09/25 01:51:01;;;;;;;7.57;4.50;;;8.70;99.90;;;;;;4125043;28;20104;-68
2021/09/25 01:53:02;;;;;;;6.83;4.83;;;8.70;99.90;;;;;;4126334;28;20034;-66
2021/09/25 01:55:05;;;;;;;7.50;4.40;;;8.70;99.90;;;;;;4125284;28;20034;-66
2021/09/25 01:57:06;;;;;;;6.17;3.77;;;8.70;99.90;;;;;;4127049;28;20099;-63
2021/09/25 01:59:07;;;;;;;7.10;4.27;;;8.70;99.90;;;;;;4124866;28;20058;-65
2021/09/25 02:01:10;;;;;;;8.97;4.40;;;8.70;99.90;;;;;;4126259;28;20121;-68
2021/09/25 02:03:12;;;;;;;6.37;3.77;;;8.70;99.90;;;;;;4124534;28;20128;-64
2021/09/25 02:05:15;;;;;;;5.33;3.47;;;8.70;99.90;;;;;;4126378;28;20126;-62
2021/09/25 02:07:18;;;;;;;8.13;4.50;;;8.70;99.90;;;;;;4125485;28;20761;-63
2021/09/25 02:09:19;;;;;;;9.77;3.97;;;8.70;99.90;;;;;;4125855;28;20400;-62
2021/09/25 02:11:21;;;;;;;7.47;4.07;;;8.60;99.90;;;;;;4125103;28;20367;-66
2021/09/25 02:13:22;;;;;;;9.43;4.37;;;8.60;99.90;;;;;;4126361;28;20097;-67
2021/09/25 02:15:23;;;;;;;7.70;4.67;;;8.60;99.90;;;;;;4125254;28;20030;-62
2021/09/25 02:17:24;;;;;;;9.07;4.90;;;8.50;99.90;;;;;;4126044;28;20030;-65
2021/09/25 02:19:25;;;;;;;8.80;5.27;;;8.50;99.90;;;;;;4125108;28;20549;-62
2021/09/25 02:21:26;;;;;;;8.57;4.90;;;8.50;99.90;;;;;;4125195;28;20050;-70
2021/09/25 02:23:28;;;;;;;10.43;5.00;;;8.40;99.90;;;;;;4125331;28;20096;-67
2021/09/25 02:25:29;;;;;;;9.13;5.13;;;8.30;99.90;;;;;;4124771;28;20487;-62
2021/09/25 02:27:30;;;;;;;8.10;4.93;;;8.30;99.90;;;;;;4126192;28;20053;-61
2021/09/25 02:29:32;;;;;;;9.50;5.23;;;8.30;99.90;;;;;;4125212;28;20073;-65
2021/09/25 02:31:33;;;;;;;10.60;5.30;;;8.20;99.90;;;;;;4125751;28;20038;-62
2021/09/25 02:33:34;;;;;;;9.00;5.20;;;8.10;99.90;;;;;;4123504;28;20074;-70
2021/09/25 02:35:37;;;;;;;10.57;4.97;;;8.10;99.90;;;;;;4125774;28;20048;-64
2021/09/25 02:37:38;;;;;;;10.83;5.50;;;8.00;99.90;;;;;;4125082;28;20022;-61
2021/09/25 02:39:40;;;;;;;6.80;4.73;;;8.00;99.90;;;;;;4125807;28;20038;-62
2021/09/25 02:41:41;;;;;;;7.70;5.37;;;8.00;99.90;;;;;;4124608;28;20030;-62
2021/09/25 02:43:42;;;;;;;9.33;4.53;;;8.00;99.90;;;;;;4126089;28;20096;-65
2021/09/25 02:45:43;;;;;;;8.93;5.20;;;7.90;99.90;;;;;;4124990;28;20749;-63
2021/09/25 02:47:45;;;;;;;8.20;5.20;;;7.90;99.90;;;;;;4125214;28;20053;-66
2021/09/25 02:49:46;;;;;;;9.37;4.97;;;7.90;99.90;;;;;;4124393;28;20088;-65
2021/09/25 02:51:48;;;;;;;9.63;5.80;;;7.80;99.90;;;;;;4125199;28;20069;-62
2021/09/25 02:53:49;;;;;;;11.10;5.20;;;7.70;99.90;;;;;;4125202;28;20800;-61
2021/09/25 02:55:50;;;;;;;11.30;4.70;;;7.70;99.90;;;;;;4124486;28;20443;-62
2021/09/25 02:57:51;;;;;;;6.87;4.70;;;7.70;99.90;;;;;;4125282;28;20069;-62
2021/09/25 02:59:53;;;;;;;7.63;4.97;;;7.70;99.90;;;;;;4124265;28;20034;-68
2021/09/25 03:01:54;;;;;;;8.23;4.13;;;7.70;99.90;;;;;;4125473;28;20047;-64
2021/09/25 03:03:55;;;;;;;5.53;3.90;;;7.70;99.90;;;;;;4124155;28;20474;-66
2021/09/25 03:05:56;;;;;;;10.20;4.90;;;7.70;99.90;;;;;;4125424;28;20034;-62
2021/09/25 03:07:57;;;;;;;9.03;4.90;;;7.80;99.90;;;;;;4123884;28;20073;-63
2021/09/25 03:09:58;;;;;;;7.47;4.40;;;7.70;99.90;;;;;;4124660;28;20034;-61
2021/09/25 03:12:00;;;;;;;5.97;4.00;;;7.80;99.90;;;;;;4124105;28;20073;-65
2021/09/25 03:14:01;;;;;;;9.53;3.77;;;7.80;99.90;;;;;;4125808;28;20038;-66
2021/09/25 03:16:02;;;;;;;8.30;4.20;;;7.80;99.90;;;;;;4124068;28;20121;-61
2021/09/25 03:18:03;;;;;;;6.73;3.97;;;7.90;99.90;;;;;;4125056;28;20486;-67
2021/09/25 03:20:06;;;;;;;7.93;3.83;;;7.90;99.90;;;;;;4124378;28;20018;-64
2021/09/25 03:22:07;;;;;;;8.10;3.60;;;7.90;99.90;;;;;;4124507;28;20085;-63
2021/09/25 03:24:08;;;;;;;6.23;3.83;;;7.90;99.90;;;;;;4124299;28;20438;-69
2021/09/25 03:26:09;;;;;;;5.03;3.23;;;8.00;99.90;;;;;;4123895;28;20022;-63
2021/09/25 03:28:11;;;;;;;7.33;3.23;;;8.00;99.90;;;;;;4125021;28;20097;-64
2021/09/25 03:30:13;;;;;;;6.40;3.30;;;8.00;99.90;;;;;;4123746;28;20080;-62
2021/09/25 03:32:15;;;;;;;8.17;3.20;;;8.10;99.90;;;;;;4124722;28;20042;-66
2021/09/25 03:34:16;;;;;;;5.13;2.70;;;8.10;99.90;;;;;;4124283;28;20101;-61
2021/09/25 03:36:18;;;;;;;6.90;3.33;;;8.10;99.90;;;;;;4125168;28;20426;-62
2021/09/25 03:38:21;;;;;;;5.43;3.07;;;8.20;99.90;;;;;;4124076;28;20733;-65
2021/09/25 03:40:22;;;;;;;5.50;3.20;;;8.20;99.90;;;;;;4123960;28;20030;-61
2021/09/25 03:42:23;;;;;;;5.50;3.10;;;8.20;99.90;;;;;;4123385;28;20038;-64
2021/09/25 03:44:25;;;;;;;8.10;3.43;;;8.20;99.90;;;;;;4125263;28;20046;-62
2021/09/25 03:46:26;;;;;;;8.93;3.83;;;8.20;99.90;;;;;;4123909;28;20085;-65
2021/09/25 03:48:27;;;;;;;6.63;3.40;;;8.20;99.90;;;;;;4124579;28;20137;-65
2021/09/25 03:50:28;;;;;;;6.40;3.77;;;8.20;99.90;;;;;;4123614;28;20018;-62
2021/09/25 03:52:29;;;;;;;4.63;3.03;;;8.20;99.90;;;;;;4125123;28;20026;-68
2021/09/25 03:54:31;;;;;;;8.13;3.33;;;8.20;99.90;;;;;;4123859;28;20030;-62
2021/09/25 03:56:32;;;;;;;5.10;3.23;;;8.20;99.90;;;;;;4123806;28;20105;-62
2021/09/25 03:58:37;;;;;;;6.17;3.13;;;8.20;99.90;;;;;;4124292;28;20101;-66
2021/09/25 04:00:44;;;;;;;4.03;2.87;;;8.20;99.90;;;;;;4123631;28;20528;-61
2021/09/25 04:02:46;;;;;;;5.80;3.00;;;8.20;99.90;;;;;;4123604;28;20038;-66
2021/09/25 04:04:48;;;;;;;10.13;3.20;;;8.20;99.90;;;;;;4123865;28;20038;-62
2021/09/25 04:06:49;;;;;;;5.10;2.83;;;8.20;99.90;;;;;;4125066;28;20058;-61
2021/09/25 04:08:50;;;;;;;6.47;3.23;;;8.20;99.90;;;;;;4123084;28;20046;-61
2021/09/25 04:10:51;;;;;;;7.93;2.83;;;8.20;99.90;;;;;;4124427;28;20034;-63
2021/09/25 04:12:53;;;;;;;5.63;3.27;;;8.20;99.90;;;;;;4122871;28;20035;-61
2021/09/25 04:14:54;;;;;;;5.67;2.73;;;8.20;99.90;;;;;;4124943;28;20023;-62
2021/09/25 04:16:55;;;;;;;7.27;2.90;;;8.20;99.90;;;;;;4123815;28;20561;-67
2021/09/25 04:18:56;;;;;;;5.63;2.40;;;8.20;99.90;;;;;;4124778;28;20046;-64
2021/09/25 04:20:57;;;;;;;4.70;2.90;;;8.20;99.90;;;;;;4123750;28;20104;-67
2021/09/25 04:22:59;;;;;;;5.10;2.73;;;8.20;99.90;;;;;;4127383;28;20384;-63
2021/09/25 04:25:00;;;;;;;4.50;3.00;;;8.20;99.90;;;;;;4126568;28;20046;-63
2021/09/25 04:27:01;;;;;;;5.40;2.90;;;8.30;99.90;;;;;;4127121;28;20557;-66
2021/09/25 04:29:02;;;;;;;4.47;2.93;;;8.30;99.90;;;;;;4127364;28;20077;-63
2021/09/25 04:31:04;;;;;;;7.63;3.10;;;8.20;99.90;;;;;;4126812;28;20427;-62
2021/09/25 04:33:06;;;;;;;4.73;2.73;;;8.30;99.90;;;;;;4127525;28;20081;-62
2021/09/25 04:35:08;;;;;;;9.70;3.87;;;8.30;99.90;;;;;;4124630;28;20042;-65
2021/09/25 04:37:09;;;;;;;4.67;2.83;;;8.40;99.90;;;;;;4127701;28;20120;-62
2021/09/25 04:39:11;;;;;;;7.80;2.90;;;8.50;99.90;;;;;;4126443;28;20092;-62
2021/09/25 04:41:12;;;;;;;7.43;3.70;;;8.70;99.90;;;;;;4127212;28;20109;-67
2021/09/25 04:43:13;;;;;;;5.10;2.90;;;9.00;99.90;;;;;;4126582;28;20117;-63
2021/09/25 04:45:14;;;;;;;4.07;2.70;;;9.20;99.90;;;;;;4127223;28;20487;-62
2021/09/25 04:47:16;;;;;;;3.10;2.43;;;9.40;99.90;;;;;;4125644;28;20096;-61
2021/09/25 04:49:17;;;;;;;6.77;3.23;;;9.60;99.90;;;;;;4127368;28;20562;-66
2021/09/25 04:51:19;;;;;;;7.50;2.90;;;9.90;99.90;;;;;;4126070;28;20030;-63
2021/09/25 04:53:20;;;;;;;3.60;2.57;;;10.10;99.90;;;;;;4127135;28;20063;-63
2021/09/25 04:55:21;;;;;;;4.37;2.40;;;10.40;99.90;;;;;;4126659;28;20922;-63
2021/09/25 04:57:22;;;;;;;4.60;2.27;;;10.70;99.90;;;;;;4125107;28;20396;-61
2021/09/25 04:59:23;;;;;;;3.37;2.33;;;11.00;99.90;;;;;;4126552;28;20034;-64
2021/09/25 05:01:25;;;;;;;7.67;2.70;;;11.10;99.90;;;;;;4126458;28;20026;-68
2021/09/25 05:03:26;;;;;;;4.53;2.50;;;11.30;99.90;;;;;;4126574;28;20050;-62
2021/09/25 05:05:27;;;;;;;5.53;2.87;;;11.70;99.90;;;;;;4125932;28;20076;-65
2021/09/25 05:07:28;;;;;;;4.00;2.97;;;12.10;99.90;;;;;;4127290;28;20042;-63
2021/09/25 05:09:29;;;;;;;5.40;2.67;;;12.30;99.90;;;;;;4125778;28;20454;-66
2021/09/25 05:11:30;;;;;;;5.97;2.87;;;12.70;99.90;;;;;;4127339;28;20034;-61
2021/09/25 05:13:31;;;;;;;5.00;2.73;;;13.00;99.90;;;;;;4125756;28;20038;-61
2021/09/25 05:15:33;;;;;;;5.13;2.90;;;13.10;99.90;;;;;;4126840;28;20042;-64
2021/09/25 05:17:35;;;;;;;7.70;2.73;;;13.30;99.90;;;;;;4125735;28;20533;-61
2021/09/25 05:19:36;;;;;;;4.57;2.43;;;13.30;99.90;;;;;;4126752;28;20104;-61
2021/09/25 05:21:37;;;;;;;4.10;2.30;;;13.40;99.90;;;;;;4125691;28;20088;-62
2021/09/25 05:23:38;;;;;;;5.87;2.50;;;13.90;99.90;;;;;;4125731;28;20061;-64
2021/09/25 05:25:39;;;;;;;4.47;2.50;;;14.10;99.90;;;;;;4125750;28;20430;-61
2021/09/25 05:27:42;;;;;;;4.95;2.47;;;14.10;99.90;;;;;;4126715;28;20030;-62
2021/09/25 05:29:43;;;;;;;2.95;2.25;;;14.10;99.90;;;;;;4125679;28;20084;-63
2021/09/25 05:31:45;;;;;;;4.63;2.15;;;14.50;99.90;;;;;;4126417;28;20093;-61
2021/09/25 05:33:46;;;;;;;6.45;2.53;;;14.80;99.90;;;;;;4125683;28;20042;-61
2021/09/25 05:35:47;;;;;;;3.40;2.45;;;15.00;99.90;;;;;;4124538;28;20046;-66
2021/09/25 05:37:48;;;;;;;5.88;2.28;;;15.30;99.90;;;;;;4106621;28;20038;-63
2021/09/25 05:39:54;;;;;;;5.13;2.45;;;15.30;99.90;;;;;;4109169;28;20081;-63
2021/09/25 05:41:55;;;;;;;6.18;2.70;;;15.60;99.90;;;;;;4112405;28;20903;-66
2021/09/25 05:43:56;;;;;;;7.13;3.13;;;16.00;99.90;;;;;;4126209;28;20042;-63
2021/09/25 05:45:57;;;;;;;6.50;2.88;;;16.40;99.90;;;;;;4126277;28;20046;-63
2021/09/25 05:47:58;;;;;;;3.72;2.53;;;16.40;99.90;;;;;;4125071;28;20030;-63
2021/09/25 05:50:00;;;;;;;6.18;2.67;;;15.90;99.90;;;;;;4126435;28;20034;-66
2021/09/25 05:52:01;;;;;;;4.55;2.63;;;16.00;99.90;;;;;;4124967;28;20117;-62
2021/09/25 05:54:02;;;;;;;6.97;2.80;;;16.70;99.90;;;;;;4124873;28;20470;-63
2021/09/25 05:56:04;;;;;;;7.15;2.53;;;17.20;99.90;;;;;;4107842;28;20043;-61
2021/09/25 05:58:05;;;;;;;6.22;2.72;;;17.30;99.90;;;;;;4109833;28;20022;-64
2021/09/25 06:00:07;;;;;;;6.03;3.33;;;17.50;99.90;;;;;;4109009;28;20739;-61
2021/09/25 06:02:08;;;;;;;5.07;2.40;;;18.00;99.50;;;;;;4109172;28;20097;-62
2021/09/25 06:04:09;;;;;;;6.55;2.67;;;17.90;98.50;;;;;;4109278;28;20113;-63
2021/09/25 06:06:10;;;;;;;3.72;2.15;;;17.70;98.40;;;;;;4110385;28;20129;-61
2021/09/25 06:08:12;;;;;;;7.03;2.30;;;17.80;98.10;;;;;;4125233;28;20060;-62
2021/09/25 06:10:13;;;;;;;5.25;2.35;;;17.80;97.80;;;;;;4124347;28;20042;-63
2021/09/25 06:12:15;;;;;;;6.95;2.42;;;17.60;97.60;;;;;;4125895;28;20061;-62
2021/09/25 06:14:16;;;;;;;5.35;2.35;;;17.20;97.60;;;;;;4124941;28;20455;-64
2021/09/25 06:16:17;;;;;;;4.22;2.50;;;17.10;97.80;;;;;;4125636;28;20030;-62
2021/09/25 06:18:18;;;;;;;4.00;2.30;;;16.80;97.70;;;;;;4123874;28;20858;-62
2021/09/25 06:20:19;;;;;;;6.72;2.60;;;16.90;97.80;;;;;;4122352;28;20039;-65
2021/09/25 06:22:20;;;;;;;5.15;2.88;;;16.90;97.40;;;;;;4116792;28;20034;-68
2021/09/25 06:24:22;;;;;;;4.63;2.58;;;16.70;97.70;;;;;;4125792;28;20501;-62
2021/09/25 06:26:23;;;;;;;5.65;2.63;;;16.50;97.70;;;;;;4125032;28;20088;-67
2021/09/25 06:28:24;;;;;;;5.32;2.28;;;16.70;97.70;;;;;;4125619;28;20065;-61
2021/09/25 06:30:26;;;;;;;7.03;2.28;;;17.00;97.50;;;;;;4125416;28;20026;-66
2021/09/25 06:32:27;;;;;;;6.03;2.30;;;16.90;97.20;;;;;;4125198;28;20049;-62
2021/09/25 06:34:28;;;;;;;8.23;2.70;;;17.10;97.30;;;;;;4124715;28;20490;-62
2021/09/25 06:36:32;;;;;;;5.80;3.03;;;17.60;97.10;;;;;;4125128;28;20034;-61
2021/09/25 06:38:33;;;;;;;5.47;2.28;;;17.70;96.60;;;;;;4125306;28;20426;-63
2021/09/25 06:40:34;;;;;;;3.80;2.63;;;17.30;96.50;;;;;;4124884;28;20089;-61
2021/09/25 06:42:36;;;;;;;4.38;2.55;;;17.30;96.60;;;;;;4125018;28;20038;-61
2021/09/25 06:44:37;;;;;;;5.88;2.38;;;17.60;96.60;;;;;;4124640;28;20058;-61
2021/09/25 06:46:38;;;;;;;6.07;1.90;;;17.80;96.40;;;;;;4126025;28;20042;-62
2021/09/25 06:48:41;;;;;;;3.55;2.03;;;17.40;96.10;;;;;;4123320;28;20120;-64
2021/09/25 06:50:42;;;;;;;3.95;2.17;;;17.10;96.60;;;;;;4123820;28;20113;-61
2021/09/25 06:52:43;;;;;;;3.85;2.17;;;17.50;96.70;;;;;;4124335;28;20050;-63
2021/09/25 06:54:44;;;;;;;8.68;3.25;;;17.90;96.30;;;;;;4125650;28;20104;-60
2021/09/25 06:56:45;;;;;;;7.75;2.90;;;18.40;95.90;;;;;;4123907;28;20050;-64
2021/09/25 06:58:46;;;;;;;7.28;3.75;;;18.60;95.50;;;;;;4125076;28;20486;-63
2021/09/25 07:00:48;;;;;;;6.15;2.42;;;19.00;95.20;;;;;;4123924;28;20088;-61
2021/09/25 07:02:49;;;;;;;6.32;2.50;;;19.20;94.70;;;;;;4124187;28;20745;-61
2021/09/25 07:04:51;;;;;;;6.95;3.38;;;19.20;94.60;;;;;;4123696;28;20042;-63
2021/09/25 07:06:52;;;;;;;8.90;3.17;;;19.10;94.60;;;;;;4124506;28;20096;-63
2021/09/25 07:08:53;;;;;;;5.05;2.50;;;19.00;94.60;;;;;;4125525;28;20042;-61
2021/09/25 07:10:54;;;;;;;5.65;2.15;;;19.20;94.80;;;;;;4121903;28;20117;-62
2021/09/25 07:12:55;;;;;;;5.57;2.60;;;19.30;94.70;;;;;;4124146;28;20043;-61
2021/09/25 07:14:57;;;;;;;12.05;4.97;;;19.50;94.40;;;;;;4113214;28;20844;-61
2021/09/25 07:16:58;;;;;;;9.57;2.90;;;19.70;94.40;;;;;;4108623;28;20144;-64
2021/09/25 07:18:59;;;;;;;20.50;7.82;;;20.10;94.00;;;;;;4122444;28;20085;-61
2021/09/25 07:21:02;;;;;;;6.45;2.63;;;20.20;93.70;;;;;;4117799;28;20481;-62
2021/09/25 07:23:03;;;;;;;5.32;2.28;;;20.30;93.60;;;;;;4117711;28;20039;-62
2021/09/25 07:25:04;;;;;;;7.93;2.20;;;20.50;93.50;;;;;;4123154;28;20046;-61
2021/09/25 07:27:06;;;;;;;5.88;2.08;;;20.90;93.00;;;;;;4122106;28;20046;-62
2021/09/25 07:29:07;;;;;;;6.90;2.55;;;21.20;92.90;;;;;;4123421;28;20450;-62
2021/09/25 07:31:09;;;;;;;5.75;2.38;;;21.50;92.30;;;;;;4122747;28;20454;-63
2021/09/25 07:33:10;;;;;;;9.32;2.97;;;21.70;92.00;;;;;;4121839;28;20046;-63
2021/09/25 07:35:13;;;;;;;8.05;3.22;;;21.70;91.60;;;;;;4122388;28;20426;-58
2021/09/25 07:37:15;;;;;;;3.53;1.90;;;21.60;91.40;;;;;;4122266;28;20889;-64
2021/09/25 07:39:16;;;;;;;7.28;3.38;;;21.50;91.40;;;;;;4123277;28;20034;-63
2021/09/25 07:41:17;;;;;;;5.80;2.78;;;21.70;91.30;;;;;;4121030;28;20445;-62
2021/09/25 07:43:19;;;;;;;5.18;2.30;;;21.80;91.10;;;;;;4122625;28;20034;-61
2021/09/25 07:45:20;;;;;;;5.75;2.53;;;21.90;90.80;;;;;;4112305;28;20275;-60
2021/09/25 07:47:21;;;;;;;6.07;2.35;;;21.90;90.60;;;;;;4123142;28;20092;-63
2021/09/25 07:49:22;;;;;;;7.78;1.90;;;21.80;90.60;;;;;;4120640;28;20184;-62
2021/09/25 07:51:23;;;;;;;8.07;3.63;;;21.70;90.60;;;;;;4120501;28;20050;-60
2021/09/25 07:53:25;;;;;;;3.92;1.92;;;22.00;90.20;;;;;;4121258;28;20142;-59
2021/09/25 07:55:26;;;;;;;7.47;2.08;;;22.10;89.50;;;;;;4123859;28;20561;-67
2021/09/25 07:57:27;;;;;;;15.75;7.20;;;22.00;88.80;;;;;;4127595;28;20105;-64
2021/09/25 07:59:28;;;;;;;9.00;2.40;;;21.60;88.50;;;;;;4128620;28;20551;-59
2021/09/25 08:01:29;;;;;;;13.00;6.15;;;21.50;88.40;;;;;;4127618;28;20502;-60
2021/09/25 08:03:31;;;;;;;22.40;10.07;;;21.30;88.00;;;;;;4127884;28;20054;-62
2021/09/25 08:05:32;;;;;;;10.02;1.90;;;21.10;88.40;;;;;;4127525;28;20046;-61
2021/09/25 08:07:33;;;;;;;4.63;1.65;;;21.00;88.30;;;;;;4126377;28;20058;-61
2021/09/25 08:09:34;;;;;;;8.20;1.58;;;21.00;88.50;;;;;;4127197;28;20034;-62
2021/09/25 08:11:36;;;;;;;9.07;3.38;;;21.10;88.20;;;;;;4127556;28;20498;-61
2021/09/25 08:13:38;;;;;;;12.88;3.97;;;21.10;87.90;;;;;;4129213;28;20046;-61
2021/09/25 08:15:40;;;;;;;7.03;2.45;;;21.30;88.00;;;;;;4119355;28;20113;-66
2021/09/25 08:17:42;;;;;;;23.58;9.70;;;21.30;87.60;;;;;;4113593;28;20034;-61
2021/09/25 08:19:43;;;;;;;11.45;4.00;;;21.40;87.00;;;;;;4112246;28;20121;-63
2021/09/25 08:21:44;;;;;;;5.65;1.90;;;21.30;86.50;;;;;;4115046;28;20038;-58
2021/09/25 08:23:45;;;;;;;4.80;1.40;;;21.20;86.90;;;;;;4127631;28;20038;-62
2021/09/25 08:25:46;;;;;;;5.30;1.60;;;21.40;86.70;;;;;;4129441;28;20034;-62
2021/09/25 08:27:47;;;;;;;6.35;1.88;;;21.50;85.90;;;;;;4128744;28;20030;-65
2021/09/25 08:29:49;;;;;;;6.38;1.38;;;21.30;85.50;;;;;;4128996;28;20042;-61
2021/09/25 08:31:50;;;;;;;6.22;1.98;;;21.40;86.00;;;;;;4128479;28;20836;-63
2021/09/25 08:33:52;;;;;;;4.97;1.48;;;21.40;85.70;;;;;;4129353;28;20034;-60
2021/09/25 08:35:53;;;;;;;6.47;1.92;;;21.50;85.40;;;;;;4128667;28;20117;-63
2021/09/25 08:37:54;;;;;;;4.43;1.42;;;21.40;85.20;;;;;;4127091;28;20093;-59
2021/09/25 08:39:55;;;;;;;2.72;1.48;;;21.40;85.50;;;;;;4129231;28;20077;-63
2021/09/25 08:41:58;;;;;;;4.47;1.65;;;21.40;85.20;;;;;;4128670;28;20100;-61
2021/09/25 08:43:59;;;;;;;2.70;1.08;;;21.40;85.60;;;;;;4129826;28;20046;-62
2021/09/25 08:46:02;;;;;;;4.30;1.48;;;21.50;85.00;;;;;;4128529;28;20038;-64
2021/09/25 08:48:04;;;;;;;4.28;1.38;;;21.50;85.30;;;;;;4129820;28;20038;-66
2021/09/25 08:50:07;;;;;;;4.75;1.30;;;21.50;85.00;;;;;;4127685;28;20077;-68
2021/09/25 08:52:09;;;;;;;4.72;1.10;;;21.20;84.40;;;;;;4129515;28;20046;-63
2021/09/25 08:54:10;;;;;;;6.30;1.42;;;21.10;84.50;;;;;;4128891;28;20418;-63
2021/09/25 08:56:12;;;;;;;3.22;1.58;;;21.00;84.60;;;;;;4130094;28;20173;-61
2021/09/25 08:58:13;;;;;;;5.22;1.50;;;21.00;84.20;;;;;;4110132;28;20047;-62
2021/09/25 09:00:38;;;;;;;3.20;1.00;;;20.90;84.50;;;;;;4113017;28;20852;-69
2021/09/25 09:02:39;;;;;;;3.55;1.45;;;20.90;82.20;;;;;;4111601;28;20089;-62
2021/09/25 09:04:49;;;;;;;4.00;1.27;;;20.90;84.60;;;;;;4113237;28;20034;-63
2021/09/25 09:06:50;;;;;;;5.43;1.50;;;21.20;83.00;;;;;;4114169;28;20109;-60
2021/09/25 09:08:53;;;;;;;7.75;5.65;;;21.20;84.20;;;;;;4125435;28;20080;-63
2021/09/25 09:10:55;;;;;;;5.95;3.33;;;20.90;83.70;;;;;;4125019;28;20010;-64
2021/09/25 09:12:57;;;;;;;4.60;1.40;;;20.70;84.40;;;;;;4121081;28;20034;-62
2021/09/25 09:14:58;;;;;;;5.40;1.50;;;20.30;84.00;;;;;;4109826;28;20022;-61
2021/09/25 09:16:59;;;;;;;3.55;1.90;;;20.30;84.70;;;;;;4109757;28;20494;-64
2021/09/25 09:19:00;;;;;;;7.28;1.48;;;20.50;84.60;;;;;;4109687;28;20043;-64
2021/09/25 09:21:22;;;;;;;2.00;1.00;;;20.80;84.40;;;;;;4109555;28;20085;-69
2021/09/25 09:23:23;;;;;;;5.95;1.33;;;21.00;84.10;;;;;;4128129;28;20696;-63
2021/09/25 09:25:25;;;;;;;2.22;0.90;;;21.20;84.40;;;;;;4124644;28;20071;-71
2021/09/25 09:27:28;;;;;;;3.75;1.15;;;21.20;84.00;;;;;;4130421;28;20458;-63
2021/09/25 09:29:33;;;;;;;3.72;1.10;;;21.40;84.20;;;;;;4136178;28;20570;-61
2021/09/25 09:31:35;;;;;;;4.00;1.30;;;21.60;84.00;;;;;;4126465;28;20022;-61
2021/09/25 09:33:42;;;;;;;2.28;0.88;;;21.60;83.50;;;;;;4124800;28;20050;-61
2021/09/25 09:35:44;;;;;;;3.40;1.30;;;21.50;83.60;;;;;;4125537;28;20101;-65
2021/09/25 09:37:46;;;;;;;2.45;1.20;;;21.60;83.60;;;;;;4123095;28;20068;-64
2021/09/25 09:40:05;;;;;;;5.15;1.10;;;21.60;83.60;;;;;;4125633;28;20030;-61
2021/09/25 09:42:06;;;;;;;5.43;1.60;;;21.30;80.80;;;;;;4124857;28;20022;-60
2021/09/25 09:44:14;;;;;;;4.28;1.60;;;21.00;82.90;;;;;;4126233;28;20034;-61
2021/09/25 09:46:16;;;;;;;5.10;1.42;;;20.80;82.70;;;;;;4125058;28;20112;-60
2021/09/25 09:48:20;;;;;;;4.88;1.88;;;20.70;83.30;;;;;;4125818;28;20038;-64
2021/09/25 09:50:21;;;;;;;5.15;1.40;;;20.60;83.80;;;;;;4124716;28;20768;-60
2021/09/25 09:52:22;;;;;;;3.30;1.20;;;20.60;83.70;;;;;;4126592;28;20620;-63
2021/09/25 09:54:26;;;;;;;3.75;1.27;;;20.50;83.30;;;;;;4124540;28;20042;-60
2021/09/25 09:56:27;;;;;;;2.42;1.23;;;20.20;83.80;;;;;;4125966;28;20073;-63
2021/09/25 09:58:30;;;;;;;4.00;1.10;;;20.20;84.60;;;;;;4124761;28;20089;-62
2021/09/25 10:00:32;;;;;;;4.22;1.38;;;20.30;84.90;;;;;;4125147;28;20450;-62
2021/09/25 10:02:33;;;;;;;4.90;1.42;;;20.30;84.70;;;;;;4124503;28;20030;-62
2021/09/25 10:04:36;;;;;;;2.20;1.70;;;20.30;84.60;;;;;;4124902;28;20442;-65
2021/09/25 10:06:37;;;;;;;5.75;1.13;;;20.40;84.40;;;;;;4124610;28;20430;-61
2021/09/25 10:08:40;;;;;;;2.83;1.10;;;20.50;84.30;;;;;;4124582;28;20028;-63
2021/09/25 10:10:41;;;;;;;4.47;1.30;;;20.50;84.80;;;;;;4124992;28;20022;-65
2021/09/25 10:12:42;;;;;;;4.00;1.33;;;20.60;84.60;;;;;;4123921;28;20046;-61
2021/09/25 10:14:46;;;;;;;3.97;1.58;;;20.60;84.10;;;;;;4126202;28;20033;-61
2021/09/25 10:16:48;;;;;;;3.63;1.35;;;20.70;83.60;;;;;;4124095;28;20442;-62
2021/09/25 10:18:50;;;;;;;3.22;1.20;;;20.60;83.90;;;;;;4125245;28;20046;-64
2021/09/25 10:20:52;;;;;;;4.93;1.13;;;20.70;83.80;;;;;;4123411;28;20085;-62
2021/09/25 10:22:54;;;;;;;1.10;0.80;;;20.70;83.60;;;;;;4125768;28;20030;-59
2021/09/25 10:25:06;;;;;;;3.63;1.50;;;20.80;83.20;;;;;;4123118;28;20047;-60
2021/09/25 10:27:09;;;;;;;2.63;1.20;;;20.80;80.70;;;;;;4125914;28;20038;-61
2021/09/25 10:29:11;;;;;;;2.90;1.08;;;20.60;82.20;;;;;;4123720;28;20561;-59
2021/09/25 10:31:17;;;;;;;1.27;0.90;;;20.50;81.30;;;;;;4125778;28;20046;-65
2021/09/25 10:33:19;;;;;;;2.47;1.10;;;20.40;81.20;;;;;;4123852;28;20051;-59
2021/09/25 10:35:25;;;;;;;1.38;1.08;;;20.30;81.70;;;;;;4125175;28;20066;-60
2021/09/25 10:37:41;;;;;;;2.97;1.40;;;20.30;82.10;;;;;;4124153;28;20022;-62